sensor_id;sensor_type;location;lat;lon;timestamp;P1;durP1;ratioP1;P2;durP2;ratioP2
10939;SDS011;5522;42.696;23.494;2024-03-23T00:55:43;14.98;;;6.53;;
10939;SDS011;5522;42.696;23.494;2024-03-23T00:58:09;11.43;;;6.13;;
10939;SDS011;5522;42.696;23.494;2024-03-23T01:00:35;10.10;;;6.28;;
10939;SDS011;5522;42.696;23.494;2024-03-23T01:08:12;10.90;;;5.07;;
10939;SDS011;5522;42.696;23.494;2024-03-23T01:10:40;7.82;;;5.30;;
10939;SDS011;5522;42.696;23.494;2024-03-23T01:13:06;11.48;;;5.38;;
10939;SDS011;5522;42.696;23.494;2024-03-23T01:15:33;9.23;;;4.95;;
10939;SDS011;5522;42.696;23.494;2024-03-23T01:17:59;8.57;;;4.93;;
10939;SDS011;5522;42.696;23.494;2024-03-23T01:22:57;7.68;;;4.78;;
10939;SDS011;5522;42.696;23.494;2024-03-23T01:25:24;10.65;;;5.80;;
10939;SDS011;5522;42.696;23.494;2024-03-23T01:27:51;8.27;;;5.47;;
10939;SDS011;5522;42.696;23.494;2024-03-23T01:30:18;9.38;;;5.03;;
10939;SDS011;5522;42.696;23.494;2024-03-23T01:32:44;9.70;;;6.65;;
10939;SDS011;5522;42.696;23.494;2024-03-23T01:35:11;8.82;;;5.70;;
10939;SDS011;5522;42.696;23.494;2024-03-23T01:37:37;11.18;;;6.43;;
10939;SDS011;5522;42.696;23.494;2024-03-23T01:40:04;10.35;;;7.05;;
10939;SDS011;5522;42.696;23.494;2024-03-23T01:42:31;12.48;;;7.03;;
10939;SDS011;5522;42.696;23.494;2024-03-23T01:44:59;12.20;;;6.60;;
10939;SDS011;5522;42.696;23.494;2024-03-23T01:47:25;14.98;;;7.05;;
10939;SDS011;5522;42.696;23.494;2024-03-23T01:49:52;12.23;;;6.07;;
10939;SDS011;5522;42.696;23.494;2024-03-23T01:52:18;12.35;;;6.40;;
10939;SDS011;5522;42.696;23.494;2024-03-23T01:54:45;11.82;;;6.15;;
10939;SDS011;5522;42.696;23.494;2024-03-23T01:57:11;13.23;;;7.18;;
10939;SDS011;5522;42.696;23.494;2024-03-23T01:59:39;11.55;;;6.15;;
10939;SDS011;5522;42.696;23.494;2024-03-23T02:02:06;10.90;;;7.03;;
10939;SDS011;5522;42.696;23.494;2024-03-23T02:04:33;11.07;;;6.55;;
10939;SDS011;5522;42.696;23.494;2024-03-23T02:06:59;8.68;;;5.82;;
10939;SDS011;5522;42.696;23.494;2024-03-23T02:09:26;10.45;;;7.13;;
10939;SDS011;5522;42.696;23.494;2024-03-23T02:11:52;9.20;;;6.35;;
10939;SDS011;5522;42.696;23.494;2024-03-23T02:14:18;10.23;;;6.53;;
10939;SDS011;5522;42.696;23.494;2024-03-23T02:16:44;11.45;;;6.97;;
10939;SDS011;5522;42.696;23.494;2024-03-23T02:19:13;58.35;;;18.38;;
10939;SDS011;5522;42.696;23.494;2024-03-23T02:21:39;41.92;;;14.77;;
10939;SDS011;5522;42.696;23.494;2024-03-23T02:24:07;60.72;;;18.17;;
10939;SDS011;5522;42.696;23.494;2024-03-23T02:26:33;296.92;;;80.10;;
10939;SDS011;5522;42.696;23.494;2024-03-23T02:29:00;411.05;;;135.45;;
10939;SDS011;5522;42.696;23.494;2024-03-23T02:31:26;292.70;;;96.57;;
10939;SDS011;5522;42.696;23.494;2024-03-23T02:33:53;56.83;;;25.30;;
10939;SDS011;5522;42.696;23.494;2024-03-23T02:36:19;17.08;;;8.80;;
10939;SDS011;5522;42.696;23.494;2024-03-23T02:38:46;9.25;;;5.38;;
10939;SDS011;5522;42.696;23.494;2024-03-23T02:41:13;8.20;;;4.97;;
10939;SDS011;5522;42.696;23.494;2024-03-23T02:43:48;12.70;;;4.85;;
10939;SDS011;5522;42.696;23.494;2024-03-23T02:46:14;11.30;;;5.65;;
10939;SDS011;5522;42.696;23.494;2024-03-23T02:48:40;16.55;;;7.35;;
10939;SDS011;5522;42.696;23.494;2024-03-23T02:51:06;12.05;;;5.95;;
10939;SDS011;5522;42.696;23.494;2024-03-23T02:53:33;14.10;;;6.25;;
10939;SDS011;5522;42.696;23.494;2024-03-23T02:55:59;14.18;;;7.10;;
10939;SDS011;5522;42.696;23.494;2024-03-23T02:58:27;13.73;;;7.43;;
10939;SDS011;5522;42.696;23.494;2024-03-23T03:00:53;11.70;;;6.97;;
10939;SDS011;5522;42.696;23.494;2024-03-23T03:03:20;11.45;;;6.45;;
10939;SDS011;5522;42.696;23.494;2024-03-23T03:05:45;13.73;;;7.22;;
10939;SDS011;5522;42.696;23.494;2024-03-23T03:08:12;9.88;;;6.20;;
10939;SDS011;5522;42.696;23.494;2024-03-23T03:10:38;9.45;;;6.03;;
10939;SDS011;5522;42.696;23.494;2024-03-23T03:13:05;10.15;;;6.50;;
10939;SDS011;5522;42.696;23.494;2024-03-23T03:15:32;11.82;;;6.03;;
10939;SDS011;5522;42.696;23.494;2024-03-23T03:17:58;12.10;;;6.22;;
10939;SDS011;5522;42.696;23.494;2024-03-23T03:20:24;9.23;;;5.68;;
10939;SDS011;5522;42.696;23.494;2024-03-23T03:22:51;12.05;;;5.85;;
10939;SDS011;5522;42.696;23.494;2024-03-23T03:25:18;11.18;;;5.32;;
10939;SDS011;5522;42.696;23.494;2024-03-23T03:27:45;6.82;;;4.45;;
10939;SDS011;5522;42.696;23.494;2024-03-23T03:30:11;8.65;;;5.30;;
10939;SDS011;5522;42.696;23.494;2024-03-23T03:32:40;9.38;;;5.10;;
10939;SDS011;5522;42.696;23.494;2024-03-23T03:35:06;10.43;;;5.55;;
10939;SDS011;5522;42.696;23.494;2024-03-23T03:37:33;15.15;;;7.82;;
10939;SDS011;5522;42.696;23.494;2024-03-23T03:39:59;12.82;;;7.75;;
10939;SDS011;5522;42.696;23.494;2024-03-23T03:42:26;13.23;;;6.60;;
10939;SDS011;5522;42.696;23.494;2024-03-23T03:44:52;9.32;;;6.13;;
10939;SDS011;5522;42.696;23.494;2024-03-23T03:47:19;10.55;;;5.45;;
10939;SDS011;5522;42.696;23.494;2024-03-23T03:49:47;10.98;;;5.78;;
10939;SDS011;5522;42.696;23.494;2024-03-23T03:52:13;15.52;;;8.98;;
10939;SDS011;5522;42.696;23.494;2024-03-23T03:54:39;13.55;;;8.02;;
10939;SDS011;5522;42.696;23.494;2024-03-23T03:57:06;16.13;;;8.70;;
10939;SDS011;5522;42.696;23.494;2024-03-23T03:59:32;33.47;;;16.25;;
10939;SDS011;5522;42.696;23.494;2024-03-23T04:01:59;21.63;;;10.32;;
10939;SDS011;5522;42.696;23.494;2024-03-23T04:04:25;23.75;;;10.48;;
10939;SDS011;5522;42.696;23.494;2024-03-23T04:06:59;14.82;;;6.30;;
10939;SDS011;5522;42.696;23.494;2024-03-23T04:09:24;11.25;;;6.70;;
10939;SDS011;5522;42.696;23.494;2024-03-23T04:11:51;12.15;;;6.47;;
10939;SDS011;5522;42.696;23.494;2024-03-23T04:14:17;15.15;;;6.13;;
10939;SDS011;5522;42.696;23.494;2024-03-23T04:16:44;16.38;;;7.47;;
10939;SDS011;5522;42.696;23.494;2024-03-23T04:19:10;15.63;;;6.55;;
10939;SDS011;5522;42.696;23.494;2024-03-23T04:21:37;17.15;;;7.22;;
10939;SDS011;5522;42.696;23.494;2024-03-23T04:24:05;14.13;;;7.15;;
10939;SDS011;5522;42.696;23.494;2024-03-23T04:26:39;14.27;;;6.13;;
10939;SDS011;5522;42.696;23.494;2024-03-23T04:29:06;14.05;;;6.82;;
10939;SDS011;5522;42.696;23.494;2024-03-23T04:31:33;8.88;;;5.32;;
10939;SDS011;5522;42.696;23.494;2024-03-23T04:33:59;9.85;;;5.15;;
10939;SDS011;5522;42.696;23.494;2024-03-23T04:36:26;13.88;;;5.63;;
10939;SDS011;5522;42.696;23.494;2024-03-23T04:38:52;8.15;;;4.80;;
10939;SDS011;5522;42.696;23.494;2024-03-23T04:41:20;8.73;;;4.72;;
10939;SDS011;5522;42.696;23.494;2024-03-23T04:43:47;7.22;;;4.95;;
10939;SDS011;5522;42.696;23.494;2024-03-23T04:46:14;7.78;;;4.72;;
10939;SDS011;5522;42.696;23.494;2024-03-23T04:48:41;6.63;;;4.38;;
10939;SDS011;5522;42.696;23.494;2024-03-23T04:51:09;7.15;;;4.13;;
10939;SDS011;5522;42.696;23.494;2024-03-23T04:53:37;7.50;;;4.78;;
10939;SDS011;5522;42.696;23.494;2024-03-23T04:56:04;5.00;;;3.60;;
10939;SDS011;5522;42.696;23.494;2024-03-23T04:58:32;5.65;;;3.15;;
10939;SDS011;5522;42.696;23.494;2024-03-23T05:00:58;7.30;;;3.97;;
10939;SDS011;5522;42.696;23.494;2024-03-23T05:03:25;9.35;;;4.80;;
10939;SDS011;5522;42.696;23.494;2024-03-23T05:05:50;10.85;;;4.65;;
10939;SDS011;5522;42.696;23.494;2024-03-23T05:08:18;6.60;;;5.03;;
10939;SDS011;5522;42.696;23.494;2024-03-23T05:10:44;7.68;;;5.50;;
10939;SDS011;5522;42.696;23.494;2024-03-23T05:13:11;7.95;;;4.25;;
10939;SDS011;5522;42.696;23.494;2024-03-23T05:15:38;10.93;;;4.88;;
10939;SDS011;5522;42.696;23.494;2024-03-23T05:18:05;7.60;;;4.70;;
10939;SDS011;5522;42.696;23.494;2024-03-23T05:20:33;4.32;;;2.83;;
10939;SDS011;5522;42.696;23.494;2024-03-23T05:22:58;7.88;;;3.58;;
10939;SDS011;5522;42.696;23.494;2024-03-23T05:25:25;10.65;;;3.55;;
10939;SDS011;5522;42.696;23.494;2024-03-23T05:27:51;6.35;;;3.42;;
10939;SDS011;5522;42.696;23.494;2024-03-23T05:30:18;8.23;;;2.95;;
10939;SDS011;5522;42.696;23.494;2024-03-23T05:32:45;5.10;;;2.90;;
10939;SDS011;5522;42.696;23.494;2024-03-23T05:35:12;8.40;;;2.72;;
10939;SDS011;5522;42.696;23.494;2024-03-23T05:37:38;7.03;;;2.85;;
10939;SDS011;5522;42.696;23.494;2024-03-23T05:40:05;7.45;;;3.08;;
10939;SDS011;5522;42.696;23.494;2024-03-23T05:42:33;10.45;;;3.58;;
10939;SDS011;5522;42.696;23.494;2024-03-23T05:45:00;5.43;;;2.47;;
10939;SDS011;5522;42.696;23.494;2024-03-23T05:47:26;5.63;;;2.47;;
10939;SDS011;5522;42.696;23.494;2024-03-23T05:49:55;3.88;;;1.60;;
10939;SDS011;5522;42.696;23.494;2024-03-23T05:52:21;2.60;;;1.67;;
10939;SDS011;5522;42.696;23.494;2024-03-23T05:54:50;3.15;;;1.80;;
10939;SDS011;5522;42.696;23.494;2024-03-23T05:57:16;4.40;;;1.88;;
10939;SDS011;5522;42.696;23.494;2024-03-23T05:59:44;3.60;;;1.65;;
10939;SDS011;5522;42.696;23.494;2024-03-23T06:02:10;3.13;;;1.90;;
10939;SDS011;5522;42.696;23.494;2024-03-23T06:04:36;2.65;;;1.85;;
10939;SDS011;5522;42.696;23.494;2024-03-23T06:07:04;3.15;;;1.63;;
10939;SDS011;5522;42.696;23.494;2024-03-23T06:09:31;2.10;;;1.65;;
10939;SDS011;5522;42.696;23.494;2024-03-23T06:11:57;3.28;;;1.95;;
10939;SDS011;5522;42.696;23.494;2024-03-23T06:14:24;4.05;;;2.13;;
10939;SDS011;5522;42.696;23.494;2024-03-23T06:16:49;3.53;;;2.45;;
10939;SDS011;5522;42.696;23.494;2024-03-23T06:19:16;2.72;;;2.22;;
10939;SDS011;5522;42.696;23.494;2024-03-23T06:21:43;2.90;;;2.42;;
10939;SDS011;5522;42.696;23.494;2024-03-23T06:24:12;4.70;;;2.58;;
10939;SDS011;5522;42.696;23.494;2024-03-23T06:26:38;2.83;;;2.63;;
10939;SDS011;5522;42.696;23.494;2024-03-23T06:29:05;2.65;;;2.42;;
10939;SDS011;5522;42.696;23.494;2024-03-23T06:31:30;3.97;;;2.85;;
10939;SDS011;5522;42.696;23.494;2024-03-23T06:33:57;3.38;;;3.08;;
10939;SDS011;5522;42.696;23.494;2024-03-23T06:36:23;6.95;;;3.20;;
10939;SDS011;5522;42.696;23.494;2024-03-23T06:38:50;4.47;;;4.20;;
10939;SDS011;5522;42.696;23.494;2024-03-23T06:41:17;7.60;;;3.13;;
10939;SDS011;5522;42.696;23.494;2024-03-23T06:43:45;4.53;;;4.03;;
10939;SDS011;5522;42.696;23.494;2024-03-23T06:46:11;3.97;;;3.60;;
10939;SDS011;5522;42.696;23.494;2024-03-23T06:48:37;4.32;;;3.45;;
10939;SDS011;5522;42.696;23.494;2024-03-23T06:51:03;6.07;;;3.20;;
10939;SDS011;5522;42.696;23.494;2024-03-23T06:53:31;3.28;;;2.97;;
10939;SDS011;5522;42.696;23.494;2024-03-23T06:55:57;5.72;;;3.65;;
10939;SDS011;5522;42.696;23.494;2024-03-23T06:58:27;3.50;;;3.20;;
10939;SDS011;5522;42.696;23.494;2024-03-23T07:00:53;4.75;;;3.28;;
10939;SDS011;5522;42.696;23.494;2024-03-23T07:03:21;5.80;;;3.47;;
10939;SDS011;5522;42.696;23.494;2024-03-23T07:05:47;3.88;;;3.58;;
10939;SDS011;5522;42.696;23.494;2024-03-23T07:08:14;4.97;;;3.45;;
10939;SDS011;5522;42.696;23.494;2024-03-23T07:10:46;4.30;;;3.88;;
10939;SDS011;5522;42.696;23.494;2024-03-23T07:13:13;3.85;;;3.28;;
10939;SDS011;5522;42.696;23.494;2024-03-23T07:15:40;6.35;;;3.30;;
10939;SDS011;5522;42.696;23.494;2024-03-23T07:18:06;4.90;;;3.33;;
10939;SDS011;5522;42.696;23.494;2024-03-23T07:20:32;4.88;;;3.55;;
10939;SDS011;5522;42.696;23.494;2024-03-23T07:22:59;4.32;;;3.83;;
10939;SDS011;5522;42.696;23.494;2024-03-23T07:25:25;8.68;;;4.78;;
10939;SDS011;5522;42.696;23.494;2024-03-23T07:27:53;3.38;;;2.92;;
10939;SDS011;5522;42.696;23.494;2024-03-23T07:30:19;4.18;;;3.90;;
10939;SDS011;5522;42.696;23.494;2024-03-23T07:32:47;3.90;;;3.53;;
10939;SDS011;5522;42.696;23.494;2024-03-23T07:35:13;4.75;;;3.70;;
10939;SDS011;5522;42.696;23.494;2024-03-23T07:37:42;3.72;;;3.42;;
10939;SDS011;5522;42.696;23.494;2024-03-23T07:40:08;6.38;;;2.97;;
10939;SDS011;5522;42.696;23.494;2024-03-23T07:42:36;4.10;;;3.72;;
10939;SDS011;5522;42.696;23.494;2024-03-23T07:45:03;5.78;;;4.93;;
10939;SDS011;5522;42.696;23.494;2024-03-23T07:47:30;7.47;;;3.88;;
10939;SDS011;5522;42.696;23.494;2024-03-23T07:49:57;6.10;;;3.95;;
10939;SDS011;5522;42.696;23.494;2024-03-23T07:52:27;4.80;;;3.53;;
10939;SDS011;5522;42.696;23.494;2024-03-23T07:54:53;3.40;;;3.20;;
10939;SDS011;5522;42.696;23.494;2024-03-23T07:57:20;3.35;;;3.03;;
10939;SDS011;5522;42.696;23.494;2024-03-23T07:59:46;5.65;;;4.10;;
10939;SDS011;5522;42.696;23.494;2024-03-23T08:02:13;3.17;;;2.95;;
10939;SDS011;5522;42.696;23.494;2024-03-23T08:04:39;3.22;;;3.03;;
10939;SDS011;5522;42.696;23.494;2024-03-23T08:07:07;2.88;;;2.78;;
10939;SDS011;5522;42.696;23.494;2024-03-23T08:09:33;4.80;;;3.50;;
10939;SDS011;5522;42.696;23.494;2024-03-23T08:11:59;3.85;;;3.65;;
10939;SDS011;5522;42.696;23.494;2024-03-23T08:14:25;8.90;;;3.63;;
10939;SDS011;5522;42.696;23.494;2024-03-23T08:16:54;7.07;;;3.70;;
10939;SDS011;5522;42.696;23.494;2024-03-23T08:19:20;5.03;;;2.65;;
10939;SDS011;5522;42.696;23.494;2024-03-23T08:21:46;7.53;;;3.50;;
10939;SDS011;5522;42.696;23.494;2024-03-23T08:24:14;9.70;;;3.85;;
10939;SDS011;5522;42.696;23.494;2024-03-23T08:26:40;6.03;;;2.63;;
10939;SDS011;5522;42.696;23.494;2024-03-23T08:29:06;4.03;;;2.47;;
10939;SDS011;5522;42.696;23.494;2024-03-23T08:31:33;7.90;;;3.65;;
10939;SDS011;5522;42.696;23.494;2024-03-23T08:33:59;3.85;;;2.35;;
10939;SDS011;5522;42.696;23.494;2024-03-23T08:36:25;4.82;;;3.08;;
10939;SDS011;5522;42.696;23.494;2024-03-23T08:38:51;3.85;;;2.17;;
10939;SDS011;5522;42.696;23.494;2024-03-23T08:41:21;5.57;;;2.75;;
10939;SDS011;5522;42.696;23.494;2024-03-23T08:43:47;4.93;;;2.83;;
10939;SDS011;5522;42.696;23.494;2024-03-23T08:46:14;15.60;;;8.18;;
10939;SDS011;5522;42.696;23.494;2024-03-23T08:48:42;10.13;;;6.07;;
10939;SDS011;5522;42.696;23.494;2024-03-23T08:51:11;10.15;;;1.90;;
10939;SDS011;5522;42.696;23.494;2024-03-23T08:53:38;8.80;;;2.00;;
10939;SDS011;5522;42.696;23.494;2024-03-23T08:56:06;3.35;;;1.77;;
10939;SDS011;5522;42.696;23.494;2024-03-23T08:58:34;5.50;;;2.47;;
10939;SDS011;5522;42.696;23.494;2024-03-23T09:01:06;2.50;;;1.90;;
10939;SDS011;5522;42.696;23.494;2024-03-23T09:03:32;4.18;;;1.77;;
10939;SDS011;5522;42.696;23.494;2024-03-23T09:06:00;5.43;;;3.88;;
10939;SDS011;5522;42.696;23.494;2024-03-23T09:08:27;5.10;;;4.13;;
10939;SDS011;5522;42.696;23.494;2024-03-23T09:10:53;4.63;;;2.60;;
10939;SDS011;5522;42.696;23.494;2024-03-23T09:13:20;5.43;;;2.35;;
10939;SDS011;5522;42.696;23.494;2024-03-23T09:15:48;3.60;;;2.70;;
10939;SDS011;5522;42.696;23.494;2024-03-23T09:18:15;6.82;;;3.22;;
10939;SDS011;5522;42.696;23.494;2024-03-23T09:20:41;4.57;;;2.65;;
10939;SDS011;5522;42.696;23.494;2024-03-23T09:23:08;7.00;;;2.65;;
10939;SDS011;5522;42.696;23.494;2024-03-23T09:25:37;7.88;;;2.95;;
10939;SDS011;5522;42.696;23.494;2024-03-23T09:28:05;6.15;;;3.97;;
10939;SDS011;5522;42.696;23.494;2024-03-23T09:30:32;5.22;;;3.47;;
10939;SDS011;5522;42.696;23.494;2024-03-23T09:33:00;7.95;;;2.88;;
10939;SDS011;5522;42.696;23.494;2024-03-23T09:35:26;3.17;;;2.88;;
10939;SDS011;5522;42.696;23.494;2024-03-23T09:37:53;2.80;;;1.92;;
10939;SDS011;5522;42.696;23.494;2024-03-23T09:40:19;3.53;;;2.58;;
10939;SDS011;5522;42.696;23.494;2024-03-23T09:42:49;2.10;;;1.95;;
10939;SDS011;5522;42.696;23.494;2024-03-23T09:45:17;3.58;;;2.20;;
10939;SDS011;5522;42.696;23.494;2024-03-23T09:47:46;3.58;;;2.00;;
10939;SDS011;5522;42.696;23.494;2024-03-23T09:50:14;3.38;;;1.38;;
10939;SDS011;5522;42.696;23.494;2024-03-23T09:52:41;3.38;;;1.60;;
10939;SDS011;5522;42.696;23.494;2024-03-23T09:55:07;4.30;;;1.63;;
10939;SDS011;5522;42.696;23.494;2024-03-23T09:57:35;8.35;;;1.63;;
10939;SDS011;5522;42.696;23.494;2024-03-23T10:00:00;2.72;;;1.83;;
10939;SDS011;5522;42.696;23.494;2024-03-23T10:02:28;5.82;;;1.50;;
10939;SDS011;5522;42.696;23.494;2024-03-23T10:04:54;5.88;;;1.35;;
10939;SDS011;5522;42.696;23.494;2024-03-23T10:07:25;3.47;;;1.55;;
10939;SDS011;5522;42.696;23.494;2024-03-23T10:09:53;1.95;;;1.35;;
10939;SDS011;5522;42.696;23.494;2024-03-23T10:12:20;1.80;;;1.33;;
10939;SDS011;5522;42.696;23.494;2024-03-23T10:14:46;3.22;;;1.05;;
10939;SDS011;5522;42.696;23.494;2024-03-23T10:17:14;2.33;;;1.20;;
10939;SDS011;5522;42.696;23.494;2024-03-23T10:19:42;3.15;;;1.00;;
10939;SDS011;5522;42.696;23.494;2024-03-23T10:22:10;2.05;;;1.08;;
10939;SDS011;5522;42.696;23.494;2024-03-23T10:24:40;2.67;;;0.88;;
10939;SDS011;5522;42.696;23.494;2024-03-23T10:27:07;3.28;;;0.95;;
10939;SDS011;5522;42.696;23.494;2024-03-23T10:29:33;5.97;;;1.20;;
10939;SDS011;5522;42.696;23.494;2024-03-23T10:32:09;3.10;;;0.93;;
10939;SDS011;5522;42.696;23.494;2024-03-23T10:34:36;3.67;;;0.95;;
10939;SDS011;5522;42.696;23.494;2024-03-23T10:37:03;1.48;;;1.10;;
10939;SDS011;5522;42.696;23.494;2024-03-23T10:39:30;3.05;;;0.80;;
10939;SDS011;5522;42.696;23.494;2024-03-23T10:42:01;3.03;;;0.90;;
10939;SDS011;5522;42.696;23.494;2024-03-23T10:44:28;2.67;;;0.80;;
10939;SDS011;5522;42.696;23.494;2024-03-23T10:46:56;2.88;;;0.82;;
10939;SDS011;5522;42.696;23.494;2024-03-23T10:49:25;3.83;;;1.05;;
10939;SDS011;5522;42.696;23.494;2024-03-23T10:51:54;4.95;;;0.93;;
10939;SDS011;5522;42.696;23.494;2024-03-23T10:54:21;5.60;;;0.77;;
10939;SDS011;5522;42.696;23.494;2024-03-23T10:56:50;5.97;;;1.45;;
10939;SDS011;5522;42.696;23.494;2024-03-23T10:59:20;1.80;;;1.00;;
10939;SDS011;5522;42.696;23.494;2024-03-23T11:01:54;3.65;;;1.17;;
10939;SDS011;5522;42.696;23.494;2024-03-23T11:04:29;1.48;;;1.23;;
10939;SDS011;5522;42.696;23.494;2024-03-23T11:06:57;2.08;;;1.40;;
10939;SDS011;5522;42.696;23.494;2024-03-23T11:12:25;1.40;;;1.15;;
10939;SDS011;5522;42.696;23.494;2024-03-23T11:14:53;1.00;;;0.90;;
10939;SDS011;5522;42.696;23.494;2024-03-23T11:17:21;1.92;;;1.70;;
10939;SDS011;5522;42.696;23.494;2024-03-23T11:19:54;3.00;;;1.38;;
10939;SDS011;5522;42.696;23.494;2024-03-23T11:25:08;1.67;;;1.58;;
10939;SDS011;5522;42.696;23.494;2024-03-23T11:27:39;1.73;;;1.20;;
10939;SDS011;5522;42.696;23.494;2024-03-23T11:30:13;4.30;;;0.88;;
10939;SDS011;5522;42.696;23.494;2024-03-23T11:32:41;5.07;;;0.98;;
10939;SDS011;5522;42.696;23.494;2024-03-23T11:35:08;1.33;;;0.77;;
10939;SDS011;5522;42.696;23.494;2024-03-23T11:37:36;1.95;;;0.80;;
10939;SDS011;5522;42.696;23.494;2024-03-23T11:40:16;2.83;;;0.80;;
10939;SDS011;5522;42.696;23.494;2024-03-23T11:42:44;4.78;;;1.00;;
10939;SDS011;5522;42.696;23.494;2024-03-23T11:45:10;2.47;;;1.02;;
10939;SDS011;5522;42.696;23.494;2024-03-23T11:47:39;1.55;;;0.80;;
10939;SDS011;5522;42.696;23.494;2024-03-23T11:50:05;3.15;;;0.77;;
10939;SDS011;5522;42.696;23.494;2024-03-23T11:52:32;4.05;;;0.90;;
10939;SDS011;5522;42.696;23.494;2024-03-23T11:55:02;6.47;;;1.13;;
10939;SDS011;5522;42.696;23.494;2024-03-23T11:57:30;2.40;;;0.75;;
10939;SDS011;5522;42.696;23.494;2024-03-23T11:59:56;2.72;;;0.60;;
10939;SDS011;5522;42.696;23.494;2024-03-23T12:02:23;0.55;;;0.50;;
10939;SDS011;5522;42.696;23.494;2024-03-23T12:04:50;2.20;;;0.60;;
10939;SDS011;5522;42.696;23.494;2024-03-23T12:07:18;2.47;;;0.60;;
10939;SDS011;5522;42.696;23.494;2024-03-23T12:09:45;2.47;;;0.50;;
10939;SDS011;5522;42.696;23.494;2024-03-23T12:12:13;6.72;;;3.45;;
10939;SDS011;5522;42.696;23.494;2024-03-23T12:14:40;2.22;;;0.80;;
10939;SDS011;5522;42.696;23.494;2024-03-23T12:17:11;1.15;;;0.65;;
10939;SDS011;5522;42.696;23.494;2024-03-23T12:19:37;3.28;;;0.60;;
10939;SDS011;5522;42.696;23.494;2024-03-23T12:22:05;0.98;;;0.70;;
10939;SDS011;5522;42.696;23.494;2024-03-23T12:24:32;2.30;;;1.23;;
10939;SDS011;5522;42.696;23.494;2024-03-23T12:27:01;5.03;;;0.88;;
10939;SDS011;5522;42.696;23.494;2024-03-23T12:29:28;1.80;;;0.70;;
10939;SDS011;5522;42.696;23.494;2024-03-23T12:31:56;3.05;;;1.02;;
10939;SDS011;5522;42.696;23.494;2024-03-23T12:34:24;2.42;;;1.80;;
10939;SDS011;5522;42.696;23.494;2024-03-23T12:36:51;1.77;;;1.17;;
10939;SDS011;5522;42.696;23.494;2024-03-23T12:39:18;4.28;;;1.10;;
10939;SDS011;5522;42.696;23.494;2024-03-23T12:41:45;2.78;;;1.20;;
10939;SDS011;5522;42.696;23.494;2024-03-23T12:44:11;2.13;;;1.20;;
10939;SDS011;5522;42.696;23.494;2024-03-23T12:46:39;10.63;;;3.33;;
10939;SDS011;5522;42.696;23.494;2024-03-23T12:49:04;12.00;;;3.83;;
10939;SDS011;5522;42.696;23.494;2024-03-23T12:51:31;2.80;;;1.20;;
10939;SDS011;5522;42.696;23.494;2024-03-23T12:53:57;10.20;;;1.38;;
10939;SDS011;5522;42.696;23.494;2024-03-23T12:56:26;2.13;;;1.63;;
10939;SDS011;5522;42.696;23.494;2024-03-23T12:58:53;3.10;;;1.42;;
10939;SDS011;5522;42.696;23.494;2024-03-23T13:01:22;1.60;;;1.50;;
10939;SDS011;5522;42.696;23.494;2024-03-23T13:03:48;6.15;;;1.98;;
10939;SDS011;5522;42.696;23.494;2024-03-23T13:06:15;8.27;;;1.85;;
10939;SDS011;5522;42.696;23.494;2024-03-23T13:08:41;4.68;;;1.35;;
10939;SDS011;5522;42.696;23.494;2024-03-23T13:11:08;2.70;;;1.70;;
10939;SDS011;5522;42.696;23.494;2024-03-23T13:13:37;1.98;;;1.52;;
10939;SDS011;5522;42.696;23.494;2024-03-23T13:16:04;4.03;;;1.70;;
10939;SDS011;5522;42.696;23.494;2024-03-23T13:18:31;3.42;;;1.80;;
10939;SDS011;5522;42.696;23.494;2024-03-23T13:20:58;1.80;;;1.10;;
10939;SDS011;5522;42.696;23.494;2024-03-23T13:23:24;3.03;;;1.30;;
10939;SDS011;5522;42.696;23.494;2024-03-23T13:25:51;1.25;;;1.02;;
10939;SDS011;5522;42.696;23.494;2024-03-23T13:28:18;2.70;;;1.17;;
10939;SDS011;5522;42.696;23.494;2024-03-23T13:30:51;3.83;;;1.17;;
10939;SDS011;5522;42.696;23.494;2024-03-23T13:33:17;5.45;;;1.63;;
10939;SDS011;5522;42.696;23.494;2024-03-23T13:35:50;2.03;;;1.50;;
10939;SDS011;5522;42.696;23.494;2024-03-23T13:38:16;4.78;;;1.27;;
10939;SDS011;5522;42.696;23.494;2024-03-23T13:40:52;3.58;;;1.35;;
10939;SDS011;5522;42.696;23.494;2024-03-23T13:43:18;2.97;;;1.08;;
10939;SDS011;5522;42.696;23.494;2024-03-23T13:45:46;1.40;;;0.70;;
10939;SDS011;5522;42.696;23.494;2024-03-23T13:48:14;2.58;;;1.10;;
10939;SDS011;5522;42.696;23.494;2024-03-23T13:50:41;6.53;;;0.90;;
10939;SDS011;5522;42.696;23.494;2024-03-23T13:53:07;5.07;;;0.93;;
10939;SDS011;5522;42.696;23.494;2024-03-23T13:55:34;2.05;;;1.00;;
10939;SDS011;5522;42.696;23.494;2024-03-23T13:58:00;7.97;;;1.10;;
10939;SDS011;5522;42.696;23.494;2024-03-23T14:00:27;1.98;;;0.80;;
10939;SDS011;5522;42.696;23.494;2024-03-23T14:02:53;3.72;;;0.65;;
10939;SDS011;5522;42.696;23.494;2024-03-23T14:05:21;2.92;;;1.33;;
10939;SDS011;5522;42.696;23.494;2024-03-23T14:07:47;2.45;;;0.90;;
10939;SDS011;5522;42.696;23.494;2024-03-23T14:10:14;4.18;;;0.85;;
10939;SDS011;5522;42.696;23.494;2024-03-23T14:12:40;1.95;;;0.80;;
10939;SDS011;5522;42.696;23.494;2024-03-23T14:15:07;2.42;;;0.88;;
10939;SDS011;5522;42.696;23.494;2024-03-23T14:17:33;3.30;;;0.98;;
10939;SDS011;5522;42.696;23.494;2024-03-23T14:20:00;1.15;;;0.60;;
10939;SDS011;5522;42.696;23.494;2024-03-23T14:22:27;2.40;;;0.70;;
10939;SDS011;5522;42.696;23.494;2024-03-23T14:24:54;2.53;;;0.73;;
10939;SDS011;5522;42.696;23.494;2024-03-23T14:27:20;1.48;;;0.70;;
10939;SDS011;5522;42.696;23.494;2024-03-23T14:29:47;3.00;;;0.60;;
10939;SDS011;5522;42.696;23.494;2024-03-23T14:32:13;1.00;;;0.40;;
10939;SDS011;5522;42.696;23.494;2024-03-23T14:34:40;4.68;;;0.50;;
10939;SDS011;5522;42.696;23.494;2024-03-23T14:37:06;2.13;;;0.60;;
10939;SDS011;5522;42.696;23.494;2024-03-23T14:39:34;2.83;;;0.70;;
10939;SDS011;5522;42.696;23.494;2024-03-23T14:42:00;2.17;;;0.60;;
10939;SDS011;5522;42.696;23.494;2024-03-23T14:44:27;1.15;;;0.50;;
10939;SDS011;5522;42.696;23.494;2024-03-23T14:46:53;3.60;;;0.50;;
10939;SDS011;5522;42.696;23.494;2024-03-23T14:49:20;2.67;;;0.40;;
10939;SDS011;5522;42.696;23.494;2024-03-23T14:51:46;5.13;;;0.30;;
10939;SDS011;5522;42.696;23.494;2024-03-23T14:54:13;4.07;;;0.32;;
10939;SDS011;5522;42.696;23.494;2024-03-23T14:56:40;0.40;;;0.40;;
10939;SDS011;5522;42.696;23.494;2024-03-23T14:59:07;0.30;;;0.30;;
10939;SDS011;5522;42.696;23.494;2024-03-23T15:01:33;1.75;;;0.50;;
10939;SDS011;5522;42.696;23.494;2024-03-23T15:04:00;2.70;;;0.43;;
10939;SDS011;5522;42.696;23.494;2024-03-23T15:06:26;3.70;;;0.30;;
10939;SDS011;5522;42.696;23.494;2024-03-23T15:08:52;4.00;;;0.35;;
10939;SDS011;5522;42.696;23.494;2024-03-23T15:11:19;0.98;;;0.47;;
10939;SDS011;5522;42.696;23.494;2024-03-23T15:13:49;2.33;;;0.30;;
10939;SDS011;5522;42.696;23.494;2024-03-23T15:16:16;1.02;;;0.88;;
10939;SDS011;5522;42.696;23.494;2024-03-23T15:18:45;1.55;;;0.30;;
10939;SDS011;5522;42.696;23.494;2024-03-23T15:21:11;0.30;;;0.30;;
10939;SDS011;5522;42.696;23.494;2024-03-23T15:23:40;0.63;;;0.40;;
10939;SDS011;5522;42.696;23.494;2024-03-23T15:26:08;1.48;;;0.40;;
10939;SDS011;5522;42.696;23.494;2024-03-23T15:28:35;0.95;;;0.30;;
10939;SDS011;5522;42.696;23.494;2024-03-23T15:31:08;0.60;;;0.22;;
10939;SDS011;5522;42.696;23.494;2024-03-23T15:33:35;1.38;;;0.20;;
10939;SDS011;5522;42.696;23.494;2024-03-23T15:36:01;2.20;;;0.32;;
10939;SDS011;5522;42.696;23.494;2024-03-23T15:38:28;0.55;;;0.30;;
10939;SDS011;5522;42.696;23.494;2024-03-23T15:40:56;0.75;;;0.30;;
10939;SDS011;5522;42.696;23.494;2024-03-23T15:43:23;1.38;;;0.30;;
10939;SDS011;5522;42.696;23.494;2024-03-23T15:45:55;0.30;;;0.30;;
10939;SDS011;5522;42.696;23.494;2024-03-23T15:48:23;2.05;;;0.55;;
10939;SDS011;5522;42.696;23.494;2024-03-23T15:50:51;0.68;;;0.55;;
10939;SDS011;5522;42.696;23.494;2024-03-23T15:53:18;0.30;;;0.30;;